sensor_id;sensor_type;location;lat;lon;timestamp;P1;durP1;ratioP1;P2;durP2;ratioP2
76745;SDS011;65671;49.976;20.038;2023-03-02T00:04:21;61.42;;;27.98;;
76745;SDS011;65671;49.976;20.038;2023-03-02T00:06:50;61.42;;;26.92;;
76745;SDS011;65671;49.976;20.038;2023-03-02T00:09:19;58.85;;;27.27;;
76745;SDS011;65671;49.976;20.038;2023-03-02T00:14:10;61.90;;;25.85;;
76745;SDS011;65671;49.976;20.038;2023-03-02T00:19:01;54.45;;;24.70;;
76745;SDS011;65671;49.976;20.038;2023-03-02T00:23:52;57.22;;;25.23;;
76745;SDS011;65671;49.976;20.038;2023-03-02T00:28:43;57.40;;;25.80;;
76745;SDS011;65671;49.976;20.038;2023-03-02T00:31:09;58.83;;;27.73;;
76745;SDS011;65671;49.976;20.038;2023-03-02T00:36:01;60.05;;;25.30;;
76745;SDS011;65671;49.976;20.038;2023-03-02T00:38:27;65.45;;;27.63;;
76745;SDS011;65671;49.976;20.038;2023-03-02T00:40:53;59.42;;;28.38;;
76745;SDS011;65671;49.976;20.038;2023-03-02T00:43:20;70.82;;;31.83;;
76745;SDS011;65671;49.976;20.038;2023-03-02T00:45:51;60.72;;;27.08;;
76745;SDS011;65671;49.976;20.038;2023-03-02T00:50:44;55.33;;;24.38;;
76745;SDS011;65671;49.976;20.038;2023-03-02T00:53:09;59.10;;;27.30;;
76745;SDS011;65671;49.976;20.038;2023-03-02T00:55:35;52.85;;;25.45;;
76745;SDS011;65671;49.976;20.038;2023-03-02T00:58:02;55.15;;;25.70;;
76745;SDS011;65671;49.976;20.038;2023-03-02T01:00:29;53.63;;;23.83;;
76745;SDS011;65671;49.976;20.038;2023-03-02T01:02:56;53.17;;;22.98;;
76745;SDS011;65671;49.976;20.038;2023-03-02T01:05:22;53.70;;;24.20;;
76745;SDS011;65671;49.976;20.038;2023-03-02T01:07:48;54.33;;;23.80;;
76745;SDS011;65671;49.976;20.038;2023-03-02T01:10:14;54.55;;;25.30;;
76745;SDS011;65671;49.976;20.038;2023-03-02T01:15:06;53.72;;;25.55;;
76745;SDS011;65671;49.976;20.038;2023-03-02T01:17:34;56.30;;;23.58;;
76745;SDS011;65671;49.976;20.038;2023-03-02T01:19:59;52.13;;;24.27;;
76745;SDS011;65671;49.976;20.038;2023-03-02T01:22:25;48.17;;;22.13;;
76745;SDS011;65671;49.976;20.038;2023-03-02T01:27:17;39.17;;;18.75;;
76745;SDS011;65671;49.976;20.038;2023-03-02T01:29:44;42.35;;;18.83;;
76745;SDS011;65671;49.976;20.038;2023-03-02T01:32:10;35.65;;;17.08;;
76745;SDS011;65671;49.976;20.038;2023-03-02T01:37:01;41.38;;;18.48;;
76745;SDS011;65671;49.976;20.038;2023-03-02T01:39:26;33.97;;;16.55;;
76745;SDS011;65671;49.976;20.038;2023-03-02T01:44:39;36.75;;;16.55;;
76745;SDS011;65671;49.976;20.038;2023-03-02T01:49:44;35.00;;;16.00;;
76745;SDS011;65671;49.976;20.038;2023-03-02T01:52:14;34.80;;;15.70;;
76745;SDS011;65671;49.976;20.038;2023-03-02T01:54:40;35.42;;;17.25;;
76745;SDS011;65671;49.976;20.038;2023-03-02T01:57:08;38.15;;;17.73;;
76745;SDS011;65671;49.976;20.038;2023-03-02T01:59:35;42.30;;;16.08;;
76745;SDS011;65671;49.976;20.038;2023-03-02T02:02:06;36.97;;;16.05;;
76745;SDS011;65671;49.976;20.038;2023-03-02T02:04:35;37.42;;;17.50;;
76745;SDS011;65671;49.976;20.038;2023-03-02T02:07:05;42.60;;;18.83;;
76745;SDS011;65671;49.976;20.038;2023-03-02T02:09:33;42.03;;;19.20;;
76745;SDS011;65671;49.976;20.038;2023-03-02T02:12:21;33.08;;;16.10;;
76745;SDS011;65671;49.976;20.038;2023-03-02T02:14:47;33.60;;;15.75;;
76745;SDS011;65671;49.976;20.038;2023-03-02T02:17:14;34.90;;;16.65;;
76745;SDS011;65671;49.976;20.038;2023-03-02T02:24:59;38.78;;;16.13;;
76745;SDS011;65671;49.976;20.038;2023-03-02T02:27:30;30.58;;;15.25;;
76745;SDS011;65671;49.976;20.038;2023-03-02T02:29:58;36.13;;;17.88;;
76745;SDS011;65671;49.976;20.038;2023-03-02T02:32:27;37.45;;;15.88;;
76745;SDS011;65671;49.976;20.038;2023-03-02T02:37:45;44.67;;;19.65;;
76745;SDS011;65671;49.976;20.038;2023-03-02T02:40:18;37.28;;;19.08;;
76745;SDS011;65671;49.976;20.038;2023-03-02T02:43:00;42.35;;;18.48;;
76745;SDS011;65671;49.976;20.038;2023-03-02T02:45:26;45.45;;;20.83;;
76745;SDS011;65671;49.976;20.038;2023-03-02T02:47:52;46.65;;;22.15;;
76745;SDS011;65671;49.976;20.038;2023-03-02T02:50:21;53.05;;;24.67;;
76745;SDS011;65671;49.976;20.038;2023-03-02T02:52:54;50.80;;;23.15;;
76745;SDS011;65671;49.976;20.038;2023-03-02T02:55:24;47.88;;;22.92;;
76745;SDS011;65671;49.976;20.038;2023-03-02T02:57:53;49.20;;;21.92;;
76745;SDS011;65671;49.976;20.038;2023-03-02T03:00:22;47.58;;;20.88;;
76745;SDS011;65671;49.976;20.038;2023-03-02T03:05:22;49.53;;;21.50;;
76745;SDS011;65671;49.976;20.038;2023-03-02T03:07:47;47.92;;;21.60;;
76745;SDS011;65671;49.976;20.038;2023-03-02T03:10:25;39.22;;;19.48;;
76745;SDS011;65671;49.976;20.038;2023-03-02T03:13:05;38.97;;;16.65;;
76745;SDS011;65671;49.976;20.038;2023-03-02T03:15:35;34.45;;;15.82;;
76745;SDS011;65671;49.976;20.038;2023-03-02T03:18:01;33.20;;;17.08;;
76745;SDS011;65671;49.976;20.038;2023-03-02T03:22:52;44.22;;;19.30;;
76745;SDS011;65671;49.976;20.038;2023-03-02T03:27:44;42.05;;;18.80;;
76745;SDS011;65671;49.976;20.038;2023-03-02T03:30:11;44.70;;;20.48;;
76745;SDS011;65671;49.976;20.038;2023-03-02T03:32:39;44.97;;;19.80;;
76745;SDS011;65671;49.976;20.038;2023-03-02T03:35:05;44.33;;;19.77;;
76745;SDS011;65671;49.976;20.038;2023-03-02T03:37:33;32.08;;;15.88;;
76745;SDS011;65671;49.976;20.038;2023-03-02T03:40:00;32.70;;;16.30;;
76745;SDS011;65671;49.976;20.038;2023-03-02T03:42:25;38.17;;;15.95;;
76745;SDS011;65671;49.976;20.038;2023-03-02T03:47:16;33.40;;;15.25;;
76745;SDS011;65671;49.976;20.038;2023-03-02T03:49:42;30.30;;;15.10;;
76745;SDS011;65671;49.976;20.038;2023-03-02T03:54:33;28.98;;;12.88;;
76745;SDS011;65671;49.976;20.038;2023-03-02T03:59:24;26.65;;;12.20;;
76745;SDS011;65671;49.976;20.038;2023-03-02T04:01:55;29.60;;;12.85;;
76745;SDS011;65671;49.976;20.038;2023-03-02T04:04:36;30.92;;;14.48;;
76745;SDS011;65671;49.976;20.038;2023-03-02T04:09:27;32.30;;;13.70;;
76745;SDS011;65671;49.976;20.038;2023-03-02T04:14:20;32.65;;;14.75;;
76745;SDS011;65671;49.976;20.038;2023-03-02T04:16:47;36.35;;;17.15;;
76745;SDS011;65671;49.976;20.038;2023-03-02T04:21:39;43.72;;;20.27;;
76745;SDS011;65671;49.976;20.038;2023-03-02T04:24:07;41.88;;;18.98;;
76745;SDS011;65671;49.976;20.038;2023-03-02T04:26:34;46.45;;;18.42;;
76745;SDS011;65671;49.976;20.038;2023-03-02T04:29:01;41.47;;;19.73;;
76745;SDS011;65671;49.976;20.038;2023-03-02T04:33:52;54.20;;;24.45;;
76745;SDS011;65671;49.976;20.038;2023-03-02T04:38:44;63.65;;;25.63;;
76745;SDS011;65671;49.976;20.038;2023-03-02T04:41:10;59.47;;;27.95;;
76745;SDS011;65671;49.976;20.038;2023-03-02T04:43:36;62.65;;;30.27;;
76745;SDS011;65671;49.976;20.038;2023-03-02T04:48:26;68.23;;;25.87;;
76745;SDS011;65671;49.976;20.038;2023-03-02T04:50:53;60.40;;;26.02;;
76745;SDS011;65671;49.976;20.038;2023-03-02T04:55:44;57.10;;;27.40;;
76745;SDS011;65671;49.976;20.038;2023-03-02T05:00:35;51.63;;;23.70;;
76745;SDS011;65671;49.976;20.038;2023-03-02T05:03:01;58.83;;;25.27;;
76745;SDS011;65671;49.976;20.038;2023-03-02T05:05:28;54.22;;;23.63;;
76745;SDS011;65671;49.976;20.038;2023-03-02T05:07:54;50.33;;;22.55;;
76745;SDS011;65671;49.976;20.038;2023-03-02T05:10:24;55.85;;;24.88;;
76745;SDS011;65671;49.976;20.038;2023-03-02T05:12:51;66.65;;;28.80;;
76745;SDS011;65671;49.976;20.038;2023-03-02T05:15:30;70.32;;;28.15;;
76745;SDS011;65671;49.976;20.038;2023-03-02T05:17:58;68.28;;;30.45;;
76745;SDS011;65671;49.976;20.038;2023-03-02T05:20:25;71.28;;;29.67;;
76745;SDS011;65671;49.976;20.038;2023-03-02T05:22:54;68.20;;;27.95;;
76745;SDS011;65671;49.976;20.038;2023-03-02T05:25:25;61.33;;;29.00;;
76745;SDS011;65671;49.976;20.038;2023-03-02T05:27:52;71.22;;;30.10;;
76745;SDS011;65671;49.976;20.038;2023-03-02T05:32:44;61.08;;;26.25;;
76745;SDS011;65671;49.976;20.038;2023-03-02T05:35:10;57.05;;;26.40;;
76745;SDS011;65671;49.976;20.038;2023-03-02T05:37:36;62.05;;;27.75;;
76745;SDS011;65671;49.976;20.038;2023-03-02T05:40:06;62.50;;;27.30;;
76745;SDS011;65671;49.976;20.038;2023-03-02T05:42:33;59.40;;;27.63;;
76745;SDS011;65671;49.976;20.038;2023-03-02T05:45:00;59.50;;;28.25;;
76745;SDS011;65671;49.976;20.038;2023-03-02T05:47:26;67.78;;;30.08;;
76745;SDS011;65671;49.976;20.038;2023-03-02T05:49:52;67.00;;;31.50;;
76745;SDS011;65671;49.976;20.038;2023-03-02T05:52:17;69.93;;;31.88;;
76745;SDS011;65671;49.976;20.038;2023-03-02T05:54:43;66.50;;;31.55;;
76745;SDS011;65671;49.976;20.038;2023-03-02T05:59:34;72.60;;;31.30;;
76745;SDS011;65671;49.976;20.038;2023-03-02T06:04:25;69.22;;;30.75;;
76745;SDS011;65671;49.976;20.038;2023-03-02T06:09:15;80.57;;;30.87;;
76745;SDS011;65671;49.976;20.038;2023-03-02T06:14:07;72.88;;;32.63;;
76745;SDS011;65671;49.976;20.038;2023-03-02T06:19:00;81.32;;;35.33;;
76745;SDS011;65671;49.976;20.038;2023-03-02T06:23:51;82.22;;;34.42;;
76745;SDS011;65671;49.976;20.038;2023-03-02T06:28:41;82.63;;;35.57;;
76745;SDS011;65671;49.976;20.038;2023-03-02T06:33:32;70.63;;;30.50;;
76745;SDS011;65671;49.976;20.038;2023-03-02T06:35:58;62.40;;;26.50;;
76745;SDS011;65671;49.976;20.038;2023-03-02T06:40:49;49.30;;;23.27;;
76745;SDS011;65671;49.976;20.038;2023-03-02T06:45:40;59.92;;;28.20;;
76745;SDS011;65671;49.976;20.038;2023-03-02T06:50:31;54.67;;;26.85;;
76745;SDS011;65671;49.976;20.038;2023-03-02T06:55:22;58.53;;;22.80;;
76745;SDS011;65671;49.976;20.038;2023-03-02T07:00:14;68.18;;;27.25;;
76745;SDS011;65671;49.976;20.038;2023-03-02T07:02:49;65.97;;;27.48;;
76745;SDS011;65671;49.976;20.038;2023-03-02T07:05:16;76.60;;;32.75;;
76745;SDS011;65671;49.976;20.038;2023-03-02T07:10:07;61.20;;;28.40;;
76745;SDS011;65671;49.976;20.038;2023-03-02T07:12:35;65.05;;;29.30;;
76745;SDS011;65671;49.976;20.038;2023-03-02T07:17:26;92.95;;;36.80;;
76745;SDS011;65671;49.976;20.038;2023-03-02T07:22:17;86.50;;;35.90;;
76745;SDS011;65671;49.976;20.038;2023-03-02T07:24:42;86.82;;;37.22;;
76745;SDS011;65671;49.976;20.038;2023-03-02T07:27:08;82.95;;;36.53;;
76745;SDS011;65671;49.976;20.038;2023-03-02T07:29:34;97.70;;;41.25;;
76745;SDS011;65671;49.976;20.038;2023-03-02T07:31:59;92.15;;;38.92;;
76745;SDS011;65671;49.976;20.038;2023-03-02T07:36:51;80.47;;;33.08;;
76745;SDS011;65671;49.976;20.038;2023-03-02T07:39:17;98.25;;;35.83;;
76745;SDS011;65671;49.976;20.038;2023-03-02T07:41:43;85.40;;;34.15;;
76745;SDS011;65671;49.976;20.038;2023-03-02T07:44:09;101.40;;;42.33;;
76745;SDS011;65671;49.976;20.038;2023-03-02T07:46:35;108.28;;;41.65;;
76745;SDS011;65671;49.976;20.038;2023-03-02T07:49:00;107.60;;;44.67;;
76745;SDS011;65671;49.976;20.038;2023-03-02T07:51:27;117.30;;;44.53;;
76745;SDS011;65671;49.976;20.038;2023-03-02T07:53:52;102.85;;;42.53;;
76745;SDS011;65671;49.976;20.038;2023-03-02T07:56:18;89.93;;;39.20;;
76745;SDS011;65671;49.976;20.038;2023-03-02T07:58:45;84.18;;;37.72;;
76745;SDS011;65671;49.976;20.038;2023-03-02T08:01:10;87.63;;;37.75;;
76745;SDS011;65671;49.976;20.038;2023-03-02T08:03:36;84.45;;;38.92;;
76745;SDS011;65671;49.976;20.038;2023-03-02T08:06:06;80.57;;;36.22;;
76745;SDS011;65671;49.976;20.038;2023-03-02T08:08:33;78.78;;;37.22;;
76745;SDS011;65671;49.976;20.038;2023-03-02T08:11:07;75.82;;;37.53;;
76745;SDS011;65671;49.976;20.038;2023-03-02T08:13:35;74.40;;;34.83;;
76745;SDS011;65671;49.976;20.038;2023-03-02T08:16:01;69.82;;;34.90;;
76745;SDS011;65671;49.976;20.038;2023-03-02T08:18:28;70.82;;;33.53;;
76745;SDS011;65671;49.976;20.038;2023-03-02T08:20:54;69.50;;;33.58;;
76745;SDS011;65671;49.976;20.038;2023-03-02T08:23:21;72.97;;;33.72;;
76745;SDS011;65671;49.976;20.038;2023-03-02T08:25:47;76.65;;;33.50;;
76745;SDS011;65671;49.976;20.038;2023-03-02T08:28:13;76.22;;;34.67;;
76745;SDS011;65671;49.976;20.038;2023-03-02T08:30:38;73.47;;;35.45;;
76745;SDS011;65671;49.976;20.038;2023-03-02T08:35:30;81.40;;;37.10;;
76745;SDS011;65671;49.976;20.038;2023-03-02T08:37:56;77.90;;;37.35;;
76745;SDS011;65671;49.976;20.038;2023-03-02T08:40:23;77.60;;;35.00;;
76745;SDS011;65671;49.976;20.038;2023-03-02T08:42:49;80.15;;;37.03;;
76745;SDS011;65671;49.976;20.038;2023-03-02T08:45:21;78.38;;;36.58;;
76745;SDS011;65671;49.976;20.038;2023-03-02T08:47:51;71.80;;;30.83;;
76745;SDS011;65671;49.976;20.038;2023-03-02T08:50:19;63.78;;;30.13;;
76745;SDS011;65671;49.976;20.038;2023-03-02T08:52:45;64.93;;;30.48;;
76745;SDS011;65671;49.976;20.038;2023-03-02T08:55:11;70.60;;;32.58;;
76745;SDS011;65671;49.976;20.038;2023-03-02T08:57:36;63.45;;;29.23;;
76745;SDS011;65671;49.976;20.038;2023-03-02T09:00:02;60.30;;;31.05;;
76745;SDS011;65671;49.976;20.038;2023-03-02T09:02:33;64.25;;;30.90;;
76745;SDS011;65671;49.976;20.038;2023-03-02T09:04:58;61.35;;;30.35;;
76745;SDS011;65671;49.976;20.038;2023-03-02T09:07:24;69.53;;;30.58;;
76745;SDS011;65671;49.976;20.038;2023-03-02T09:09:49;64.63;;;32.53;;
76745;SDS011;65671;49.976;20.038;2023-03-02T09:12:15;68.38;;;33.78;;
76745;SDS011;65671;49.976;20.038;2023-03-02T09:14:41;60.30;;;30.20;;
76745;SDS011;65671;49.976;20.038;2023-03-02T09:17:06;65.68;;;29.55;;
76745;SDS011;65671;49.976;20.038;2023-03-02T09:19:32;65.30;;;30.48;;
76745;SDS011;65671;49.976;20.038;2023-03-02T09:22:05;63.80;;;29.90;;
76745;SDS011;65671;49.976;20.038;2023-03-02T09:24:34;62.03;;;28.00;;
76745;SDS011;65671;49.976;20.038;2023-03-02T09:27:01;63.80;;;29.80;;
76745;SDS011;65671;49.976;20.038;2023-03-02T09:29:27;49.42;;;26.73;;
76745;SDS011;65671;49.976;20.038;2023-03-02T09:31:53;62.05;;;30.05;;
76745;SDS011;65671;49.976;20.038;2023-03-02T09:34:19;61.60;;;28.67;;
76745;SDS011;65671;49.976;20.038;2023-03-02T09:36:45;51.70;;;26.20;;
76745;SDS011;65671;49.976;20.038;2023-03-02T09:39:11;57.35;;;27.27;;
76745;SDS011;65671;49.976;20.038;2023-03-02T09:46:53;62.05;;;30.45;;
76745;SDS011;65671;49.976;20.038;2023-03-02T09:54:30;43.53;;;23.60;;
76745;SDS011;65671;49.976;20.038;2023-03-02T09:56:56;53.00;;;27.23;;
76745;SDS011;65671;49.976;20.038;2023-03-02T09:59:28;54.70;;;27.45;;
76745;SDS011;65671;49.976;20.038;2023-03-02T10:02:15;51.55;;;26.25;;
76745;SDS011;65671;49.976;20.038;2023-03-02T10:04:46;56.92;;;27.52;;
76745;SDS011;65671;49.976;20.038;2023-03-02T10:07:30;52.55;;;27.52;;
76745;SDS011;65671;49.976;20.038;2023-03-02T10:15:14;56.47;;;26.42;;
76745;SDS011;65671;49.976;20.038;2023-03-02T10:20:45;44.72;;;24.02;;
76745;SDS011;65671;49.976;20.038;2023-03-02T10:23:31;43.90;;;22.90;;
76745;SDS011;65671;49.976;20.038;2023-03-02T10:26:22;47.80;;;24.02;;
76745;SDS011;65671;49.976;20.038;2023-03-02T10:28:56;40.65;;;19.95;;
76745;SDS011;65671;49.976;20.038;2023-03-02T10:31:31;45.15;;;21.23;;
76745;SDS011;65671;49.976;20.038;2023-03-02T10:33:58;41.50;;;20.52;;
76745;SDS011;65671;49.976;20.038;2023-03-02T10:36:29;40.45;;;19.55;;
76745;SDS011;65671;49.976;20.038;2023-03-02T10:38:56;38.10;;;19.08;;
76745;SDS011;65671;49.976;20.038;2023-03-02T10:41:26;36.60;;;18.58;;
76745;SDS011;65671;49.976;20.038;2023-03-02T10:47:04;42.08;;;20.88;;
76745;SDS011;65671;49.976;20.038;2023-03-02T10:49:35;41.53;;;20.67;;
76745;SDS011;65671;49.976;20.038;2023-03-02T10:52:11;41.05;;;20.38;;
76745;SDS011;65671;49.976;20.038;2023-03-02T10:54:38;37.88;;;18.35;;
76745;SDS011;65671;49.976;20.038;2023-03-02T10:57:04;38.75;;;18.40;;
76745;SDS011;65671;49.976;20.038;2023-03-02T10:59:56;34.75;;;17.83;;
76745;SDS011;65671;49.976;20.038;2023-03-02T11:02:25;32.05;;;17.02;;
76745;SDS011;65671;49.976;20.038;2023-03-02T11:04:56;36.65;;;18.40;;
76745;SDS011;65671;49.976;20.038;2023-03-02T11:07:34;41.20;;;18.80;;
76745;SDS011;65671;49.976;20.038;2023-03-02T11:10:16;35.95;;;18.13;;
76745;SDS011;65671;49.976;20.038;2023-03-02T11:12:47;40.90;;;18.80;;
76745;SDS011;65671;49.976;20.038;2023-03-02T11:17:50;29.10;;;13.50;;
76745;SDS011;65671;49.976;20.038;2023-03-02T11:20:40;29.92;;;15.68;;
76745;SDS011;65671;49.976;20.038;2023-03-02T11:25:37;33.38;;;17.85;;
76745;SDS011;65671;49.976;20.038;2023-03-02T11:28:21;34.53;;;18.77;;
76745;SDS011;65671;49.976;20.038;2023-03-02T11:30:58;42.22;;;19.42;;
76745;SDS011;65671;49.976;20.038;2023-03-02T11:33:33;36.22;;;18.45;;
76745;SDS011;65671;49.976;20.038;2023-03-02T11:36:17;39.35;;;18.13;;
76745;SDS011;65671;49.976;20.038;2023-03-02T11:38:49;34.15;;;17.05;;
76745;SDS011;65671;49.976;20.038;2023-03-02T11:41:26;34.00;;;17.63;;
76745;SDS011;65671;49.976;20.038;2023-03-02T11:43:54;33.35;;;16.55;;
76745;SDS011;65671;49.976;20.038;2023-03-02T11:46:27;38.55;;;18.17;;
76745;SDS011;65671;49.976;20.038;2023-03-02T11:48:55;34.47;;;18.33;;
76745;SDS011;65671;49.976;20.038;2023-03-02T11:51:29;34.13;;;16.15;;
76745;SDS011;65671;49.976;20.038;2023-03-02T11:56:43;33.17;;;16.92;;
76745;SDS011;65671;49.976;20.038;2023-03-02T11:59:16;33.03;;;15.73;;
76745;SDS011;65671;49.976;20.038;2023-03-02T12:01:46;28.45;;;14.98;;
76745;SDS011;65671;49.976;20.038;2023-03-02T12:06:56;30.63;;;15.90;;
76745;SDS011;65671;49.976;20.038;2023-03-02T12:11:57;34.13;;;17.95;;
76745;SDS011;65671;49.976;20.038;2023-03-02T12:17:20;37.10;;;19.42;;
76745;SDS011;65671;49.976;20.038;2023-03-02T12:19:50;42.42;;;21.23;;
76745;SDS011;65671;49.976;20.038;2023-03-02T12:22:27;43.35;;;20.40;;
76745;SDS011;65671;49.976;20.038;2023-03-02T12:24:58;42.10;;;22.17;;
76745;SDS011;65671;49.976;20.038;2023-03-02T12:27:32;40.00;;;21.15;;
76745;SDS011;65671;49.976;20.038;2023-03-02T12:33:36;38.60;;;20.77;;
76745;SDS011;65671;49.976;20.038;2023-03-02T12:35:44;43.15;;;22.15;;
76745;SDS011;65671;49.976;20.038;2023-03-02T12:41:03;40.53;;;21.92;;
76745;SDS011;65671;49.976;20.038;2023-03-02T12:43:55;39.72;;;19.75;;
76745;SDS011;65671;49.976;20.038;2023-03-02T12:46:31;43.00;;;20.95;;
76745;SDS011;65671;49.976;20.038;2023-03-02T12:52:03;42.78;;;20.45;;
76745;SDS011;65671;49.976;20.038;2023-03-02T12:54:43;45.08;;;22.95;;
76745;SDS011;65671;49.976;20.038;2023-03-02T12:59:39;42.28;;;21.45;;
76745;SDS011;65671;49.976;20.038;2023-03-02T13:02:09;41.22;;;20.40;;
76745;SDS011;65671;49.976;20.038;2023-03-02T13:04:39;40.08;;;21.45;;
76745;SDS011;65671;49.976;20.038;2023-03-02T13:07:05;38.00;;;20.58;;
76745;SDS011;65671;49.976;20.038;2023-03-02T13:09:39;38.72;;;20.33;;
76745;SDS011;65671;49.976;20.038;2023-03-02T13:12:10;39.50;;;21.85;;
76745;SDS011;65671;49.976;20.038;2023-03-02T13:14:38;44.00;;;21.40;;
76745;SDS011;65671;49.976;20.038;2023-03-02T13:17:05;38.50;;;20.73;;
76745;SDS011;65671;49.976;20.038;2023-03-02T13:19:30;42.25;;;21.60;;
76745;SDS011;65671;49.976;20.038;2023-03-02T13:21:58;39.45;;;20.15;;
76745;SDS011;65671;49.976;20.038;2023-03-02T13:29:46;35.83;;;18.20;;
76745;SDS011;65671;49.976;20.038;2023-03-02T13:32:34;35.65;;;17.25;;
76745;SDS011;65671;49.976;20.038;2023-03-02T13:35:13;29.27;;;16.08;;
76745;SDS011;65671;49.976;20.038;2023-03-02T13:37:42;31.02;;;17.13;;
76745;SDS011;65671;49.976;20.038;2023-03-02T13:42:46;37.47;;;19.55;;
76745;SDS011;65671;49.976;20.038;2023-03-02T13:45:20;34.30;;;19.00;;
76745;SDS011;65671;49.976;20.038;2023-03-02T13:47:56;34.47;;;17.10;;
76745;SDS011;65671;49.976;20.038;2023-03-02T13:52:50;34.97;;;18.10;;
76745;SDS011;65671;49.976;20.038;2023-03-02T13:55:19;31.95;;;17.58;;
76745;SDS011;65671;49.976;20.038;2023-03-02T13:57:46;29.63;;;15.95;;
76745;SDS011;65671;49.976;20.038;2023-03-02T14:00:15;34.58;;;18.25;;
76745;SDS011;65671;49.976;20.038;2023-03-02T14:02:41;31.88;;;16.42;;
76745;SDS011;65671;49.976;20.038;2023-03-02T14:05:09;29.92;;;16.13;;
76745;SDS011;65671;49.976;20.038;2023-03-02T14:07:45;34.10;;;18.15;;
76745;SDS011;65671;49.976;20.038;2023-03-02T14:10:11;31.48;;;16.77;;
76745;SDS011;65671;49.976;20.038;2023-03-02T14:12:38;31.40;;;17.20;;
76745;SDS011;65671;49.976;20.038;2023-03-02T14:15:08;30.02;;;14.85;;
76745;SDS011;65671;49.976;20.038;2023-03-02T14:17:38;32.95;;;17.00;;
76745;SDS011;65671;49.976;20.038;2023-03-02T14:20:05;28.33;;;15.73;;
76745;SDS011;65671;49.976;20.038;2023-03-02T14:22:34;29.55;;;15.88;;
76745;SDS011;65671;49.976;20.038;2023-03-02T14:25:02;30.15;;;16.77;;
76745;SDS011;65671;49.976;20.038;2023-03-02T14:27:28;29.83;;;14.98;;
76745;SDS011;65671;49.976;20.038;2023-03-02T14:29:55;33.92;;;17.00;;
76745;SDS011;65671;49.976;20.038;2023-03-02T14:32:22;32.28;;;15.63;;
76745;SDS011;65671;49.976;20.038;2023-03-02T14:34:48;30.50;;;15.38;;
76745;SDS011;65671;49.976;20.038;2023-03-02T14:37:15;34.28;;;15.77;;
76745;SDS011;65671;49.976;20.038;2023-03-02T14:39:46;31.05;;;14.10;;
76745;SDS011;65671;49.976;20.038;2023-03-02T14:42:17;29.38;;;14.82;;
76745;SDS011;65671;49.976;20.038;2023-03-02T14:44:47;29.63;;;14.30;;
76745;SDS011;65671;49.976;20.038;2023-03-02T14:47:14;28.00;;;12.85;;
76745;SDS011;65671;49.976;20.038;2023-03-02T14:49:43;27.83;;;15.45;;
76745;SDS011;65671;49.976;20.038;2023-03-02T14:52:13;29.80;;;14.40;;
76745;SDS011;65671;49.976;20.038;2023-03-02T14:54:45;28.35;;;13.98;;
76745;SDS011;65671;49.976;20.038;2023-03-02T14:57:17;28.08;;;14.45;;
76745;SDS011;65671;49.976;20.038;2023-03-02T14:59:44;27.33;;;14.15;;
76745;SDS011;65671;49.976;20.038;2023-03-02T15:02:10;26.83;;;13.65;;
76745;SDS011;65671;49.976;20.038;2023-03-02T15:04:36;25.33;;;14.27;;
76745;SDS011;65671;49.976;20.038;2023-03-02T15:07:01;40.72;;;15.52;;
76745;SDS011;65671;49.976;20.038;2023-03-02T15:09:27;54.88;;;19.77;;
76745;SDS011;65671;49.976;20.038;2023-03-02T15:11:53;29.38;;;15.60;;
76745;SDS011;65671;49.976;20.038;2023-03-02T15:14:18;30.92;;;15.60;;
76745;SDS011;65671;49.976;20.038;2023-03-02T15:16:43;26.75;;;13.82;;
76745;SDS011;65671;49.976;20.038;2023-03-02T15:19:09;26.25;;;13.75;;
76745;SDS011;65671;49.976;20.038;2023-03-02T15:21:36;33.70;;;14.60;;
76745;SDS011;65671;49.976;20.038;2023-03-02T15:24:05;41.42;;;16.58;;
76745;SDS011;65671;49.976;20.038;2023-03-02T15:26:31;54.03;;;16.58;;
76745;SDS011;65671;49.976;20.038;2023-03-02T15:28:56;41.42;;;16.48;;
76745;SDS011;65671;49.976;20.038;2023-03-02T15:31:22;44.67;;;17.65;;
76745;SDS011;65671;49.976;20.038;2023-03-02T15:33:47;28.27;;;13.90;;
76745;SDS011;65671;49.976;20.038;2023-03-02T15:36:15;26.75;;;14.05;;
76745;SDS011;65671;49.976;20.038;2023-03-02T15:38:41;28.52;;;14.45;;
76745;SDS011;65671;49.976;20.038;2023-03-02T15:41:09;30.80;;;15.15;;
76745;SDS011;65671;49.976;20.038;2023-03-02T15:43:36;28.63;;;14.23;;
76745;SDS011;65671;49.976;20.038;2023-03-02T15:46:03;30.60;;;15.63;;
76745;SDS011;65671;49.976;20.038;2023-03-02T15:48:29;31.33;;;14.73;;
76745;SDS011;65671;49.976;20.038;2023-03-02T15:50:56;41.47;;;19.20;;
76745;SDS011;65671;49.976;20.038;2023-03-02T15:53:26;42.08;;;18.05;;
76745;SDS011;65671;49.976;20.038;2023-03-02T15:55:53;36.47;;;17.90;;
76745;SDS011;65671;49.976;20.038;2023-03-02T15:58:19;38.88;;;18.42;;
76745;SDS011;65671;49.976;20.038;2023-03-02T16:00:46;36.25;;;16.98;;
76745;SDS011;65671;49.976;20.038;2023-03-02T16:03:17;35.78;;;16.88;;
76745;SDS011;65671;49.976;20.038;2023-03-02T16:05:44;31.88;;;14.88;;
76745;SDS011;65671;49.976;20.038;2023-03-02T16:08:09;31.05;;;15.77;;
76745;SDS011;65671;49.976;20.038;2023-03-02T16:10:35;32.00;;;16.77;;
76745;SDS011;65671;49.976;20.038;2023-03-02T16:13:04;32.67;;;17.25;;
76745;SDS011;65671;49.976;20.038;2023-03-02T16:15:35;36.65;;;16.98;;
76745;SDS011;65671;49.976;20.038;2023-03-02T16:18:05;38.03;;;18.25;;
76745;SDS011;65671;49.976;20.038;2023-03-02T16:20:32;41.22;;;18.92;;
76745;SDS011;65671;49.976;20.038;2023-03-02T16:23:02;32.33;;;17.70;;
76745;SDS011;65671;49.976;20.038;2023-03-02T16:25:34;43.65;;;18.02;;
76745;SDS011;65671;49.976;20.038;2023-03-02T16:28:03;50.00;;;20.80;;
76745;SDS011;65671;49.976;20.038;2023-03-02T16:30:30;47.10;;;21.25;;
76745;SDS011;65671;49.976;20.038;2023-03-02T16:33:00;44.78;;;21.10;;
76745;SDS011;65671;49.976;20.038;2023-03-02T16:35:27;38.90;;;19.25;;
76745;SDS011;65671;49.976;20.038;2023-03-02T16:37:53;37.55;;;19.92;;
76745;SDS011;65671;49.976;20.038;2023-03-02T16:40:20;39.22;;;19.58;;
76745;SDS011;65671;49.976;20.038;2023-03-02T16:42:46;47.25;;;22.10;;
76745;SDS011;65671;49.976;20.038;2023-03-02T16:45:12;46.42;;;22.85;;
76745;SDS011;65671;49.976;20.038;2023-03-02T16:47:38;44.65;;;23.45;;
76745;SDS011;65671;49.976;20.038;2023-03-02T16:50:04;46.10;;;24.83;;
76745;SDS011;65671;49.976;20.038;2023-03-02T16:52:31;52.00;;;27.60;;
76745;SDS011;65671;49.976;20.038;2023-03-02T16:54:56;51.10;;;24.90;;
76745;SDS011;65671;49.976;20.038;2023-03-02T16:57:22;51.10;;;25.20;;
76745;SDS011;65671;49.976;20.038;2023-03-02T16:59:47;54.92;;;26.52;;
76745;SDS011;65671;49.976;20.038;2023-03-02T17:02:13;48.08;;;25.42;;
76745;SDS011;65671;49.976;20.038;2023-03-02T17:04:40;49.38;;;23.10;;
76745;SDS011;65671;49.976;20.038;2023-03-02T17:07:05;40.00;;;22.23;;
76745;SDS011;65671;49.976;20.038;2023-03-02T17:09:36;49.85;;;23.58;;
76745;SDS011;65671;49.976;20.038;2023-03-02T17:12:05;44.90;;;20.90;;
76745;SDS011;65671;49.976;20.038;2023-03-02T17:14:31;46.10;;;23.73;;